sensor_id;sensor_type;location;lat;lon;timestamp;P1;durP1;ratioP1;P2;durP2;ratioP2
19167;SDS011;9716;53.114;18.040;2022-08-11T00:01:12;1.33;;;1.17;;
19167;SDS011;9716;53.114;18.040;2022-08-11T00:03:45;1.38;;;1.10;;
19167;SDS011;9716;53.114;18.040;2022-08-11T00:06:21;2.88;;;1.58;;
19167;SDS011;9716;53.114;18.040;2022-08-11T00:08:54;1.98;;;1.40;;
19167;SDS011;9716;53.114;18.040;2022-08-11T00:11:30;1.73;;;1.15;;
19167;SDS011;9716;53.114;18.040;2022-08-11T00:14:02;3.92;;;1.75;;
19167;SDS011;9716;53.114;18.040;2022-08-11T00:16:39;1.95;;;1.45;;
19167;SDS011;9716;53.114;18.040;2022-08-11T00:19:09;1.83;;;1.38;;
19167;SDS011;9716;53.114;18.040;2022-08-11T00:21:39;3.95;;;1.55;;
19167;SDS011;9716;53.114;18.040;2022-08-11T00:24:35;1.45;;;1.27;;
19167;SDS011;9716;53.114;18.040;2022-08-11T00:27:30;2.42;;;1.48;;
19167;SDS011;9716;53.114;18.040;2022-08-11T00:30:00;1.73;;;1.40;;
19167;SDS011;9716;53.114;18.040;2022-08-11T00:32:31;9.73;;;1.75;;
19167;SDS011;9716;53.114;18.040;2022-08-11T00:35:00;2.13;;;1.40;;
19167;SDS011;9716;53.114;18.040;2022-08-11T00:37:51;2.55;;;1.30;;
19167;SDS011;9716;53.114;18.040;2022-08-11T00:40:24;2.03;;;1.60;;
19167;SDS011;9716;53.114;18.040;2022-08-11T00:43:00;4.95;;;1.67;;
19167;SDS011;9716;53.114;18.040;2022-08-11T00:45:52;2.75;;;1.10;;
19167;SDS011;9716;53.114;18.040;2022-08-11T00:48:35;2.60;;;1.33;;
19167;SDS011;9716;53.114;18.040;2022-08-11T00:51:24;1.85;;;1.30;;
19167;SDS011;9716;53.114;18.040;2022-08-11T00:57:36;2.08;;;1.80;;
19167;SDS011;9716;53.114;18.040;2022-08-11T01:00:22;2.85;;;1.83;;
19167;SDS011;9716;53.114;18.040;2022-08-11T01:09:13;1.98;;;1.33;;
19167;SDS011;9716;53.114;18.040;2022-08-11T01:12:27;2.90;;;1.80;;
19167;SDS011;9716;53.114;18.040;2022-08-11T01:18:30;2.15;;;1.50;;
19167;SDS011;9716;53.114;18.040;2022-08-11T01:21:45;1.98;;;1.55;;
19167;SDS011;9716;53.114;18.040;2022-08-11T01:24:50;3.92;;;2.00;;
19167;SDS011;9716;53.114;18.040;2022-08-11T01:31:08;4.50;;;1.98;;
19167;SDS011;9716;53.114;18.040;2022-08-11T01:37:28;2.67;;;1.58;;
19167;SDS011;9716;53.114;18.040;2022-08-11T01:40:20;2.63;;;1.90;;
19167;SDS011;9716;53.114;18.040;2022-08-11T01:46:38;2.13;;;1.83;;
19167;SDS011;9716;53.114;18.040;2022-08-11T01:49:18;4.03;;;2.25;;
19167;SDS011;9716;53.114;18.040;2022-08-11T01:52:14;4.68;;;2.33;;
19167;SDS011;9716;53.114;18.040;2022-08-11T01:55:02;2.58;;;1.92;;
19167;SDS011;9716;53.114;18.040;2022-08-11T01:57:41;3.10;;;1.95;;
19167;SDS011;9716;53.114;18.040;2022-08-11T02:00:18;3.38;;;2.05;;
19167;SDS011;9716;53.114;18.040;2022-08-11T02:02:51;4.28;;;1.83;;
19167;SDS011;9716;53.114;18.040;2022-08-11T02:05:28;3.60;;;2.05;;
19167;SDS011;9716;53.114;18.040;2022-08-11T02:08:15;5.03;;;2.33;;
19167;SDS011;9716;53.114;18.040;2022-08-11T02:11:04;6.10;;;2.45;;
19167;SDS011;9716;53.114;18.040;2022-08-11T02:14:12;3.53;;;1.92;;
19167;SDS011;9716;53.114;18.040;2022-08-11T02:16:54;4.57;;;1.85;;
19167;SDS011;9716;53.114;18.040;2022-08-11T02:19:32;3.03;;;1.77;;
19167;SDS011;9716;53.114;18.040;2022-08-11T02:22:29;3.55;;;2.35;;
19167;SDS011;9716;53.114;18.040;2022-08-11T02:25:26;3.03;;;2.13;;
19167;SDS011;9716;53.114;18.040;2022-08-11T02:28:04;4.40;;;1.98;;
19167;SDS011;9716;53.114;18.040;2022-08-11T02:30:38;5.22;;;2.08;;
19167;SDS011;9716;53.114;18.040;2022-08-11T02:34:08;6.07;;;2.25;;
19167;SDS011;9716;53.114;18.040;2022-08-11T02:36:48;3.97;;;1.95;;
19167;SDS011;9716;53.114;18.040;2022-08-11T02:39:22;3.90;;;2.13;;
19167;SDS011;9716;53.114;18.040;2022-08-11T02:42:06;4.38;;;2.20;;
19167;SDS011;9716;53.114;18.040;2022-08-11T02:45:28;8.38;;;2.40;;
19167;SDS011;9716;53.114;18.040;2022-08-11T02:48:05;2.05;;;1.70;;
19167;SDS011;9716;53.114;18.040;2022-08-11T02:51:11;8.55;;;2.42;;
19167;SDS011;9716;53.114;18.040;2022-08-11T02:54:00;2.60;;;1.73;;
19167;SDS011;9716;53.114;18.040;2022-08-11T02:56:47;3.58;;;2.05;;
19167;SDS011;9716;53.114;18.040;2022-08-11T02:59:23;7.07;;;2.55;;
19167;SDS011;9716;53.114;18.040;2022-08-11T03:02:18;3.50;;;1.85;;
19167;SDS011;9716;53.114;18.040;2022-08-11T03:08:02;5.82;;;2.03;;
19167;SDS011;9716;53.114;18.040;2022-08-11T03:10:40;6.55;;;2.35;;
19167;SDS011;9716;53.114;18.040;2022-08-11T03:13:33;6.38;;;2.35;;
19167;SDS011;9716;53.114;18.040;2022-08-11T03:16:25;3.33;;;2.05;;
19167;SDS011;9716;53.114;18.040;2022-08-11T03:19:17;2.70;;;1.95;;
19167;SDS011;9716;53.114;18.040;2022-08-11T03:21:56;3.78;;;2.15;;
19167;SDS011;9716;53.114;18.040;2022-08-11T03:24:37;3.50;;;2.33;;
19167;SDS011;9716;53.114;18.040;2022-08-11T03:27:21;3.95;;;2.22;;
19167;SDS011;9716;53.114;18.040;2022-08-11T03:30:09;4.82;;;2.20;;
19167;SDS011;9716;53.114;18.040;2022-08-11T03:32:45;4.95;;;2.60;;
19167;SDS011;9716;53.114;18.040;2022-08-11T03:35:38;6.50;;;2.50;;
19167;SDS011;9716;53.114;18.040;2022-08-11T03:38:13;5.22;;;2.00;;
19167;SDS011;9716;53.114;18.040;2022-08-11T03:40:48;4.68;;;2.35;;
19167;SDS011;9716;53.114;18.040;2022-08-11T03:44:04;3.47;;;2.25;;
19167;SDS011;9716;53.114;18.040;2022-08-11T03:46:42;4.18;;;2.58;;
19167;SDS011;9716;53.114;18.040;2022-08-11T03:49:44;3.10;;;2.10;;
19167;SDS011;9716;53.114;18.040;2022-08-11T03:52:36;5.85;;;2.95;;
19167;SDS011;9716;53.114;18.040;2022-08-11T03:55:18;2.72;;;2.35;;
19167;SDS011;9716;53.114;18.040;2022-08-11T03:58:11;4.82;;;2.45;;
19167;SDS011;9716;53.114;18.040;2022-08-11T04:07:23;5.03;;;3.03;;
19167;SDS011;9716;53.114;18.040;2022-08-11T04:13:08;5.38;;;2.95;;
19167;SDS011;9716;53.114;18.040;2022-08-11T04:19:00;6.53;;;2.80;;
19167;SDS011;9716;53.114;18.040;2022-08-11T04:22:07;9.27;;;3.70;;
19167;SDS011;9716;53.114;18.040;2022-08-11T04:24:58;4.65;;;3.08;;
19167;SDS011;9716;53.114;18.040;2022-08-11T04:28:05;8.63;;;3.55;;
19167;SDS011;9716;53.114;18.040;2022-08-11T04:31:01;7.88;;;3.83;;
19167;SDS011;9716;53.114;18.040;2022-08-11T04:33:40;6.20;;;3.55;;
19167;SDS011;9716;53.114;18.040;2022-08-11T04:36:34;8.20;;;4.40;;
19167;SDS011;9716;53.114;18.040;2022-08-11T04:39:36;5.57;;;3.67;;
19167;SDS011;9716;53.114;18.040;2022-08-11T04:42:33;6.80;;;4.32;;
19167;SDS011;9716;53.114;18.040;2022-08-11T04:46:00;10.93;;;4.47;;
19167;SDS011;9716;53.114;18.040;2022-08-11T04:48:52;7.80;;;3.38;;
19167;SDS011;9716;53.114;18.040;2022-08-11T04:52:22;5.78;;;3.33;;
19167;SDS011;9716;53.114;18.040;2022-08-11T04:55:34;12.75;;;3.70;;
19167;SDS011;9716;53.114;18.040;2022-08-11T04:58:41;5.03;;;2.75;;
19167;SDS011;9716;53.114;18.040;2022-08-11T05:01:39;6.05;;;3.33;;
19167;SDS011;9716;53.114;18.040;2022-08-11T05:07:55;11.02;;;4.10;;
19167;SDS011;9716;53.114;18.040;2022-08-11T05:10:54;5.97;;;3.17;;
19167;SDS011;9716;53.114;18.040;2022-08-11T05:13:48;5.07;;;3.03;;
19167;SDS011;9716;53.114;18.040;2022-08-11T05:16:40;4.60;;;2.60;;
19167;SDS011;9716;53.114;18.040;2022-08-11T05:19:30;4.70;;;2.95;;
19167;SDS011;9716;53.114;18.040;2022-08-11T05:22:17;4.55;;;2.47;;
19167;SDS011;9716;53.114;18.040;2022-08-11T05:25:08;4.65;;;3.08;;
19167;SDS011;9716;53.114;18.040;2022-08-11T05:28:20;5.22;;;3.08;;
19167;SDS011;9716;53.114;18.040;2022-08-11T05:31:17;4.57;;;2.78;;
19167;SDS011;9716;53.114;18.040;2022-08-11T05:34:10;10.48;;;2.85;;
19167;SDS011;9716;53.114;18.040;2022-08-11T05:37:04;5.68;;;2.67;;
19167;SDS011;9716;53.114;18.040;2022-08-11T05:39:54;3.38;;;2.53;;
19167;SDS011;9716;53.114;18.040;2022-08-11T05:42:47;3.67;;;3.03;;
19167;SDS011;9716;53.114;18.040;2022-08-11T05:45:36;5.05;;;2.63;;
19167;SDS011;9716;53.114;18.040;2022-08-11T05:48:32;4.47;;;2.80;;
19167;SDS011;9716;53.114;18.040;2022-08-11T05:51:20;5.43;;;2.97;;
19167;SDS011;9716;53.114;18.040;2022-08-11T05:54:20;3.72;;;2.80;;
19167;SDS011;9716;53.114;18.040;2022-08-11T05:57:17;7.78;;;2.85;;
19167;SDS011;9716;53.114;18.040;2022-08-11T06:00:07;6.10;;;2.65;;
19167;SDS011;9716;53.114;18.040;2022-08-11T06:02:39;9.60;;;3.35;;
19167;SDS011;9716;53.114;18.040;2022-08-11T06:05:10;6.05;;;2.70;;
19167;SDS011;9716;53.114;18.040;2022-08-11T06:07:40;7.75;;;3.15;;
19167;SDS011;9716;53.114;18.040;2022-08-11T06:10:23;14.45;;;2.97;;
19167;SDS011;9716;53.114;18.040;2022-08-11T06:12:54;2.88;;;2.55;;
19167;SDS011;9716;53.114;18.040;2022-08-11T06:15:27;11.45;;;2.78;;
19167;SDS011;9716;53.114;18.040;2022-08-11T06:17:58;10.77;;;2.25;;
19167;SDS011;9716;53.114;18.040;2022-08-11T06:20:29;5.43;;;2.33;;
19167;SDS011;9716;53.114;18.040;2022-08-11T06:23:04;4.00;;;2.50;;
19167;SDS011;9716;53.114;18.040;2022-08-11T06:25:35;8.48;;;2.35;;
19167;SDS011;9716;53.114;18.040;2022-08-11T06:28:05;6.18;;;1.83;;
19167;SDS011;9716;53.114;18.040;2022-08-11T06:30:36;2.83;;;2.05;;
19167;SDS011;9716;53.114;18.040;2022-08-11T06:33:08;3.88;;;1.60;;
19167;SDS011;9716;53.114;18.040;2022-08-11T06:35:45;4.75;;;2.17;;
19167;SDS011;9716;53.114;18.040;2022-08-11T06:38:25;4.85;;;2.60;;
19167;SDS011;9716;53.114;18.040;2022-08-11T06:41:06;5.40;;;2.28;;
19167;SDS011;9716;53.114;18.040;2022-08-11T06:44:13;6.75;;;2.47;;
19167;SDS011;9716;53.114;18.040;2022-08-11T06:46:45;8.77;;;2.00;;
19167;SDS011;9716;53.114;18.040;2022-08-11T06:49:17;2.53;;;1.90;;
19167;SDS011;9716;53.114;18.040;2022-08-11T06:52:07;7.00;;;2.90;;
19167;SDS011;9716;53.114;18.040;2022-08-11T06:55:04;7.55;;;2.30;;
19167;SDS011;9716;53.114;18.040;2022-08-11T06:57:55;11.80;;;2.83;;
19167;SDS011;9716;53.114;18.040;2022-08-11T07:00:48;4.15;;;2.50;;
19167;SDS011;9716;53.114;18.040;2022-08-11T07:03:22;3.80;;;2.38;;
19167;SDS011;9716;53.114;18.040;2022-08-11T07:05:57;3.67;;;2.58;;
19167;SDS011;9716;53.114;18.040;2022-08-11T07:09:02;8.95;;;1.95;;
19167;SDS011;9716;53.114;18.040;2022-08-11T07:11:59;3.90;;;2.05;;
19167;SDS011;9716;53.114;18.040;2022-08-11T07:14:51;3.47;;;2.38;;
19167;SDS011;9716;53.114;18.040;2022-08-11T07:17:40;6.85;;;2.17;;
19167;SDS011;9716;53.114;18.040;2022-08-11T07:20:15;3.90;;;2.13;;
19167;SDS011;9716;53.114;18.040;2022-08-11T07:23:03;4.50;;;2.33;;
19167;SDS011;9716;53.114;18.040;2022-08-11T07:25:53;5.75;;;2.03;;
19167;SDS011;9716;53.114;18.040;2022-08-11T07:28:44;3.55;;;2.40;;
19167;SDS011;9716;53.114;18.040;2022-08-11T07:31:34;3.30;;;1.85;;
19167;SDS011;9716;53.114;18.040;2022-08-11T07:34:12;8.25;;;2.22;;
19167;SDS011;9716;53.114;18.040;2022-08-11T07:36:47;2.60;;;1.65;;
19167;SDS011;9716;53.114;18.040;2022-08-11T07:39:19;3.95;;;1.92;;
19167;SDS011;9716;53.114;18.040;2022-08-11T07:41:50;2.42;;;1.80;;
19167;SDS011;9716;53.114;18.040;2022-08-11T07:44:21;11.00;;;2.33;;
19167;SDS011;9716;53.114;18.040;2022-08-11T07:46:59;2.17;;;1.73;;
19167;SDS011;9716;53.114;18.040;2022-08-11T07:49:45;6.80;;;2.17;;
19167;SDS011;9716;53.114;18.040;2022-08-11T07:52:35;2.78;;;1.85;;
19167;SDS011;9716;53.114;18.040;2022-08-11T07:55:07;4.00;;;2.47;;
19167;SDS011;9716;53.114;18.040;2022-08-11T07:57:43;2.90;;;2.38;;
19167;SDS011;9716;53.114;18.040;2022-08-11T08:00:47;4.13;;;1.98;;
19167;SDS011;9716;53.114;18.040;2022-08-11T08:03:48;3.13;;;1.80;;
19167;SDS011;9716;53.114;18.040;2022-08-11T08:06:35;6.00;;;2.50;;
19167;SDS011;9716;53.114;18.040;2022-08-11T08:09:23;3.38;;;2.20;;
19167;SDS011;9716;53.114;18.040;2022-08-11T08:12:10;9.90;;;2.33;;
19167;SDS011;9716;53.114;18.040;2022-08-11T08:14:59;4.40;;;2.70;;
19167;SDS011;9716;53.114;18.040;2022-08-11T08:17:50;1.92;;;1.40;;
19167;SDS011;9716;53.114;18.040;2022-08-11T08:20:44;4.43;;;1.95;;
19167;SDS011;9716;53.114;18.040;2022-08-11T08:23:16;9.60;;;1.75;;
19167;SDS011;9716;53.114;18.040;2022-08-11T08:26:00;5.47;;;1.98;;
19167;SDS011;9716;53.114;18.040;2022-08-11T08:28:31;2.58;;;1.70;;
19167;SDS011;9716;53.114;18.040;2022-08-11T08:31:03;1.92;;;1.73;;
19167;SDS011;9716;53.114;18.040;2022-08-11T08:33:31;5.72;;;1.60;;
19167;SDS011;9716;53.114;18.040;2022-08-11T08:36:01;3.58;;;1.92;;
19167;SDS011;9716;53.114;18.040;2022-08-11T08:38:39;2.70;;;1.67;;
19167;SDS011;9716;53.114;18.040;2022-08-11T08:41:10;19.33;;;2.00;;
19167;SDS011;9716;53.114;18.040;2022-08-11T08:43:43;2.45;;;1.98;;
19167;SDS011;9716;53.114;18.040;2022-08-11T08:46:18;7.63;;;2.20;;
19167;SDS011;9716;53.114;18.040;2022-08-11T08:48:50;3.20;;;1.77;;
19167;SDS011;9716;53.114;18.040;2022-08-11T08:51:21;1.95;;;1.30;;
19167;SDS011;9716;53.114;18.040;2022-08-11T08:54:24;2.60;;;1.80;;
19167;SDS011;9716;53.114;18.040;2022-08-11T08:56:59;2.47;;;1.83;;
19167;SDS011;9716;53.114;18.040;2022-08-11T08:59:31;6.80;;;1.85;;
19167;SDS011;9716;53.114;18.040;2022-08-11T09:02:16;8.43;;;1.85;;
19167;SDS011;9716;53.114;18.040;2022-08-11T09:05:00;4.30;;;1.33;;
19167;SDS011;9716;53.114;18.040;2022-08-11T09:07:30;7.75;;;2.00;;
19167;SDS011;9716;53.114;18.040;2022-08-11T09:10:07;1.48;;;1.30;;
19167;SDS011;9716;53.114;18.040;2022-08-11T09:12:38;2.75;;;1.42;;
19167;SDS011;9716;53.114;18.040;2022-08-11T09:15:08;2.30;;;1.40;;
19167;SDS011;9716;53.114;18.040;2022-08-11T09:17:45;4.93;;;1.70;;
19167;SDS011;9716;53.114;18.040;2022-08-11T09:20:16;3.25;;;1.80;;
19167;SDS011;9716;53.114;18.040;2022-08-11T09:22:47;1.70;;;1.38;;
19167;SDS011;9716;53.114;18.040;2022-08-11T09:25:55;1.77;;;1.17;;
19167;SDS011;9716;53.114;18.040;2022-08-11T09:28:45;12.80;;;1.70;;
19167;SDS011;9716;53.114;18.040;2022-08-11T09:31:15;1.45;;;1.30;;
19167;SDS011;9716;53.114;18.040;2022-08-11T09:33:50;1.52;;;1.25;;
19167;SDS011;9716;53.114;18.040;2022-08-11T09:36:21;1.70;;;1.35;;
19167;SDS011;9716;53.114;18.040;2022-08-11T09:39:08;1.08;;;0.90;;
19167;SDS011;9716;53.114;18.040;2022-08-11T09:41:57;2.00;;;1.00;;
19167;SDS011;9716;53.114;18.040;2022-08-11T09:44:30;1.45;;;1.00;;
19167;SDS011;9716;53.114;18.040;2022-08-11T09:47:19;1.83;;;1.45;;
19167;SDS011;9716;53.114;18.040;2022-08-11T09:49:53;1.08;;;0.98;;
19167;SDS011;9716;53.114;18.040;2022-08-11T09:52:28;6.82;;;1.10;;
19167;SDS011;9716;53.114;18.040;2022-08-11T09:54:59;6.50;;;1.15;;
19167;SDS011;9716;53.114;18.040;2022-08-11T09:57:29;2.60;;;1.33;;
19167;SDS011;9716;53.114;18.040;2022-08-11T10:00:15;1.95;;;1.25;;
19167;SDS011;9716;53.114;18.040;2022-08-11T10:02:45;2.15;;;1.30;;
19167;SDS011;9716;53.114;18.040;2022-08-11T10:05:17;0.90;;;0.90;;
19167;SDS011;9716;53.114;18.040;2022-08-11T10:08:04;2.30;;;1.38;;
19167;SDS011;9716;53.114;18.040;2022-08-11T10:10:38;3.53;;;1.30;;
19167;SDS011;9716;53.114;18.040;2022-08-11T10:13:09;1.98;;;0.98;;
19167;SDS011;9716;53.114;18.040;2022-08-11T10:16:03;0.98;;;0.90;;
19167;SDS011;9716;53.114;18.040;2022-08-11T10:18:43;1.08;;;0.90;;
19167;SDS011;9716;53.114;18.040;2022-08-11T10:21:25;1.00;;;0.90;;
19167;SDS011;9716;53.114;18.040;2022-08-11T10:23:57;3.85;;;1.02;;
19167;SDS011;9716;53.114;18.040;2022-08-11T10:26:45;1.77;;;1.15;;
19167;SDS011;9716;53.114;18.040;2022-08-11T10:29:26;1.40;;;1.05;;
19167;SDS011;9716;53.114;18.040;2022-08-11T10:32:18;1.70;;;0.85;;
19167;SDS011;9716;53.114;18.040;2022-08-11T10:35:25;3.72;;;1.40;;
19167;SDS011;9716;53.114;18.040;2022-08-11T10:37:56;0.90;;;0.90;;
19167;SDS011;9716;53.114;18.040;2022-08-11T10:40:36;3.72;;;1.17;;
19167;SDS011;9716;53.114;18.040;2022-08-11T10:43:07;1.50;;;0.93;;
19167;SDS011;9716;53.114;18.040;2022-08-11T10:45:59;2.13;;;1.15;;
19167;SDS011;9716;53.114;18.040;2022-08-11T10:48:56;3.22;;;1.00;;
19167;SDS011;9716;53.114;18.040;2022-08-11T10:51:26;1.55;;;1.13;;
19167;SDS011;9716;53.114;18.040;2022-08-11T10:54:19;3.10;;;1.45;;
19167;SDS011;9716;53.114;18.040;2022-08-11T10:57:05;0.95;;;0.88;;
19167;SDS011;9716;53.114;18.040;2022-08-11T10:59:53;0.95;;;0.90;;
19167;SDS011;9716;53.114;18.040;2022-08-11T11:02:23;5.78;;;1.23;;
19167;SDS011;9716;53.114;18.040;2022-08-11T11:04:57;3.72;;;1.23;;
19167;SDS011;9716;53.114;18.040;2022-08-11T11:07:35;4.75;;;1.35;;
19167;SDS011;9716;53.114;18.040;2022-08-11T11:10:11;1.20;;;1.10;;
19167;SDS011;9716;53.114;18.040;2022-08-11T11:12:40;2.67;;;0.90;;
19167;SDS011;9716;53.114;18.040;2022-08-11T11:15:30;1.10;;;0.88;;
19167;SDS011;9716;53.114;18.040;2022-08-11T11:18:20;4.70;;;0.90;;
19167;SDS011;9716;53.114;18.040;2022-08-11T11:20:52;1.17;;;1.08;;
19167;SDS011;9716;53.114;18.040;2022-08-11T11:23:26;0.88;;;0.88;;
19167;SDS011;9716;53.114;18.040;2022-08-11T11:29:05;7.38;;;1.25;;
19167;SDS011;9716;53.114;18.040;2022-08-11T11:31:57;1.48;;;1.10;;
19167;SDS011;9716;53.114;18.040;2022-08-11T11:34:41;7.07;;;1.63;;
19167;SDS011;9716;53.114;18.040;2022-08-11T11:37:22;2.30;;;0.95;;
19167;SDS011;9716;53.114;18.040;2022-08-11T11:39:53;2.58;;;1.20;;
19167;SDS011;9716;53.114;18.040;2022-08-11T11:42:23;1.42;;;0.90;;
19167;SDS011;9716;53.114;18.040;2022-08-11T11:44:54;1.92;;;1.02;;
19167;SDS011;9716;53.114;18.040;2022-08-11T11:47:27;1.67;;;1.10;;
19167;SDS011;9716;53.114;18.040;2022-08-11T11:49:57;1.40;;;1.00;;
19167;SDS011;9716;53.114;18.040;2022-08-11T11:52:26;1.33;;;1.08;;
19167;SDS011;9716;53.114;18.040;2022-08-11T11:54:55;1.98;;;1.35;;
19167;SDS011;9716;53.114;18.040;2022-08-11T11:57:26;3.30;;;1.17;;
19167;SDS011;9716;53.114;18.040;2022-08-11T12:00:26;1.98;;;1.05;;
19167;SDS011;9716;53.114;18.040;2022-08-11T12:03:14;1.52;;;1.17;;
19167;SDS011;9716;53.114;18.040;2022-08-11T12:05:44;1.83;;;1.20;;
19167;SDS011;9716;53.114;18.040;2022-08-11T12:08:13;7.07;;;1.17;;
19167;SDS011;9716;53.114;18.040;2022-08-11T12:10:45;1.83;;;1.00;;
19167;SDS011;9716;53.114;18.040;2022-08-11T12:13:15;1.25;;;0.90;;
19167;SDS011;9716;53.114;18.040;2022-08-11T12:16:10;2.13;;;1.45;;
19167;SDS011;9716;53.114;18.040;2022-08-11T12:19:02;0.98;;;0.85;;
19167;SDS011;9716;53.114;18.040;2022-08-11T12:21:33;4.50;;;0.82;;
19167;SDS011;9716;53.114;18.040;2022-08-11T12:24:03;2.05;;;0.93;;
19167;SDS011;9716;53.114;18.040;2022-08-11T12:26:58;6.07;;;1.20;;
19167;SDS011;9716;53.114;18.040;2022-08-11T12:29:48;6.47;;;1.05;;
19167;SDS011;9716;53.114;18.040;2022-08-11T12:32:23;1.15;;;0.80;;
19167;SDS011;9716;53.114;18.040;2022-08-11T12:34:54;3.70;;;1.20;;
19167;SDS011;9716;53.114;18.040;2022-08-11T12:37:26;1.70;;;0.90;;
19167;SDS011;9716;53.114;18.040;2022-08-11T12:39:59;3.88;;;1.13;;
19167;SDS011;9716;53.114;18.040;2022-08-11T12:43:09;0.88;;;0.80;;
19167;SDS011;9716;53.114;18.040;2022-08-11T12:46:05;2.65;;;1.25;;
19167;SDS011;9716;53.114;18.040;2022-08-11T12:48:39;0.85;;;0.85;;
19167;SDS011;9716;53.114;18.040;2022-08-11T12:51:33;1.60;;;1.10;;
19167;SDS011;9716;53.114;18.040;2022-08-11T12:54:43;1.25;;;1.02;;
19167;SDS011;9716;53.114;18.040;2022-08-11T12:57:19;2.10;;;1.00;;
19167;SDS011;9716;53.114;18.040;2022-08-11T13:00:12;4.22;;;1.00;;
19167;SDS011;9716;53.114;18.040;2022-08-11T13:03:00;2.17;;;1.30;;
19167;SDS011;9716;53.114;18.040;2022-08-11T13:05:50;1.20;;;1.10;;
19167;SDS011;9716;53.114;18.040;2022-08-11T13:08:21;1.10;;;0.73;;
19167;SDS011;9716;53.114;18.040;2022-08-11T13:10:52;0.85;;;0.77;;
19167;SDS011;9716;53.114;18.040;2022-08-11T13:13:41;1.15;;;1.05;;
19167;SDS011;9716;53.114;18.040;2022-08-11T13:16:23;6.13;;;1.45;;
19167;SDS011;9716;53.114;18.040;2022-08-11T13:18:56;3.17;;;1.10;;
19167;SDS011;9716;53.114;18.040;2022-08-11T13:21:29;1.52;;;1.17;;
19167;SDS011;9716;53.114;18.040;2022-08-11T13:23:58;1.08;;;0.98;;
19167;SDS011;9716;53.114;18.040;2022-08-11T13:26:30;3.00;;;1.38;;
19167;SDS011;9716;53.114;18.040;2022-08-11T13:29:17;10.05;;;0.80;;
19167;SDS011;9716;53.114;18.040;2022-08-11T13:31:47;0.77;;;0.77;;
19167;SDS011;9716;53.114;18.040;2022-08-11T13:34:17;2.20;;;1.30;;
19167;SDS011;9716;53.114;18.040;2022-08-11T13:36:49;14.13;;;0.93;;
19167;SDS011;9716;53.114;18.040;2022-08-11T13:39:21;1.88;;;1.20;;
19167;SDS011;9716;53.114;18.040;2022-08-11T13:41:53;2.45;;;1.00;;
19167;SDS011;9716;53.114;18.040;2022-08-11T13:44:26;1.00;;;0.90;;
19167;SDS011;9716;53.114;18.040;2022-08-11T13:46:58;4.45;;;1.10;;
19167;SDS011;9716;53.114;18.040;2022-08-11T13:49:31;1.98;;;1.00;;
19167;SDS011;9716;53.114;18.040;2022-08-11T13:52:08;1.63;;;1.00;;
19167;SDS011;9716;53.114;18.040;2022-08-11T13:54:40;2.97;;;0.80;;
19167;SDS011;9716;53.114;18.040;2022-08-11T13:57:10;1.95;;;1.23;;
19167;SDS011;9716;53.114;18.040;2022-08-11T14:00:02;1.45;;;1.00;;
19167;SDS011;9716;53.114;18.040;2022-08-11T14:02:53;2.00;;;1.17;;
19167;SDS011;9716;53.114;18.040;2022-08-11T14:05:25;5.53;;;1.20;;
19167;SDS011;9716;53.114;18.040;2022-08-11T14:07:58;1.38;;;1.08;;
19167;SDS011;9716;53.114;18.040;2022-08-11T14:10:30;1.25;;;0.88;;
19167;SDS011;9716;53.114;18.040;2022-08-11T14:13:01;4.35;;;1.05;;
19167;SDS011;9716;53.114;18.040;2022-08-11T14:15:51;1.85;;;0.80;;
19167;SDS011;9716;53.114;18.040;2022-08-11T14:18:21;2.25;;;0.90;;
19167;SDS011;9716;53.114;18.040;2022-08-11T14:20:53;0.80;;;0.80;;
19167;SDS011;9716;53.114;18.040;2022-08-11T14:23:42;1.10;;;0.80;;
19167;SDS011;9716;53.114;18.040;2022-08-11T14:26:13;3.03;;;1.00;;
19167;SDS011;9716;53.114;18.040;2022-08-11T14:29:00;1.67;;;1.10;;
19167;SDS011;9716;53.114;18.040;2022-08-11T14:31:36;2.50;;;1.15;;
19167;SDS011;9716;53.114;18.040;2022-08-11T14:34:08;1.38;;;1.00;;
19167;SDS011;9716;53.114;18.040;2022-08-11T14:36:38;2.33;;;0.88;;
19167;SDS011;9716;53.114;18.040;2022-08-11T14:39:13;1.50;;;1.08;;
19167;SDS011;9716;53.114;18.040;2022-08-11T14:41:45;6.20;;;1.10;;
19167;SDS011;9716;53.114;18.040;2022-08-11T14:44:40;2.08;;;1.15;;
19167;SDS011;9716;53.114;18.040;2022-08-11T14:47:28;1.88;;;1.05;;
19167;SDS011;9716;53.114;18.040;2022-08-11T14:50:01;8.18;;;1.05;;
19167;SDS011;9716;53.114;18.040;2022-08-11T14:52:39;4.97;;;1.27;;
19167;SDS011;9716;53.114;18.040;2022-08-11T14:55:15;2.10;;;1.10;;
19167;SDS011;9716;53.114;18.040;2022-08-11T14:58:02;1.50;;;1.00;;
19167;SDS011;9716;53.114;18.040;2022-08-11T15:00:33;6.63;;;0.90;;
19167;SDS011;9716;53.114;18.040;2022-08-11T15:03:03;1.13;;;0.70;;
19167;SDS011;9716;53.114;18.040;2022-08-11T15:05:40;1.35;;;0.95;;
19167;SDS011;9716;53.114;18.040;2022-08-11T15:08:25;6.70;;;1.40;;
19167;SDS011;9716;53.114;18.040;2022-08-11T15:11:15;0.68;;;0.68;;
19167;SDS011;9716;53.114;18.040;2022-08-11T15:14:05;3.47;;;0.80;;
19167;SDS011;9716;53.114;18.040;2022-08-11T15:16:35;1.15;;;0.90;;
19167;SDS011;9716;53.114;18.040;2022-08-11T15:19:25;1.65;;;0.77;;
19167;SDS011;9716;53.114;18.040;2022-08-11T15:22:07;1.02;;;0.73;;
19167;SDS011;9716;53.114;18.040;2022-08-11T15:24:55;1.60;;;1.00;;
19167;SDS011;9716;53.114;18.040;2022-08-11T15:27:26;1.08;;;0.88;;
19167;SDS011;9716;53.114;18.040;2022-08-11T15:30:15;2.15;;;0.98;;
19167;SDS011;9716;53.114;18.040;2022-08-11T15:33:03;3.65;;;1.10;;
19167;SDS011;9716;53.114;18.040;2022-08-11T15:35:52;2.08;;;1.33;;
19167;SDS011;9716;53.114;18.040;2022-08-11T15:38:41;0.75;;;0.73;;
19167;SDS011;9716;53.114;18.040;2022-08-11T15:41:20;1.42;;;1.05;;
19167;SDS011;9716;53.114;18.040;2022-08-11T15:44:28;1.05;;;0.95;;
19167;SDS011;9716;53.114;18.040;2022-08-11T15:47:32;2.78;;;1.40;;
19167;SDS011;9716;53.114;18.040;2022-08-11T15:50:07;1.27;;;0.85;;
19167;SDS011;9716;53.114;18.040;2022-08-11T15:52:44;1.00;;;0.90;;
19167;SDS011;9716;53.114;18.040;2022-08-11T15:55:16;1.27;;;0.95;;
19167;SDS011;9716;53.114;18.040;2022-08-11T15:57:46;3.92;;;0.88;;
19167;SDS011;9716;53.114;18.040;2022-08-11T16:00:37;1.77;;;0.68;;
19167;SDS011;9716;53.114;18.040;2022-08-11T16:03:38;6.65;;;0.98;;
19167;SDS011;9716;53.114;18.040;2022-08-11T16:06:34;0.93;;;0.82;;
19167;SDS011;9716;53.114;18.040;2022-08-11T16:09:16;2.10;;;1.00;;
19167;SDS011;9716;53.114;18.040;2022-08-11T16:11:49;2.17;;;0.90;;
19167;SDS011;9716;53.114;18.040;2022-08-11T16:14:19;4.85;;;0.80;;
19167;SDS011;9716;53.114;18.040;2022-08-11T16:17:11;11.60;;;1.10;;
19167;SDS011;9716;53.114;18.040;2022-08-11T16:19:43;2.75;;;1.10;;
19167;SDS011;9716;53.114;18.040;2022-08-11T16:22:15;9.00;;;1.10;;
19167;SDS011;9716;53.114;18.040;2022-08-11T16:24:53;1.23;;;0.85;;
19167;SDS011;9716;53.114;18.040;2022-08-11T16:27:45;1.05;;;0.85;;
19167;SDS011;9716;53.114;18.040;2022-08-11T16:30:16;1.42;;;0.90;;
19167;SDS011;9716;53.114;18.040;2022-08-11T16:32:48;1.73;;;0.70;;
19167;SDS011;9716;53.114;18.040;2022-08-11T16:35:19;1.45;;;1.00;;
19167;SDS011;9716;53.114;18.040;2022-08-11T16:38:09;0.55;;;0.55;;
19167;SDS011;9716;53.114;18.040;2022-08-11T16:40:57;1.63;;;1.15;;
19167;SDS011;9716;53.114;18.040;2022-08-11T16:43:28;5.10;;;0.90;;
19167;SDS011;9716;53.114;18.040;2022-08-11T16:46:16;3.15;;;1.15;;
19167;SDS011;9716;53.114;18.040;2022-08-11T16:49:08;1.25;;;0.75;;
19167;SDS011;9716;53.114;18.040;2022-08-11T16:51:39;1.38;;;1.15;;
19167;SDS011;9716;53.114;18.040;2022-08-11T16:54:08;1.17;;;1.05;;
19167;SDS011;9716;53.114;18.040;2022-08-11T16:56:37;2.08;;;1.35;;
19167;SDS011;9716;53.114;18.040;2022-08-11T16:59:13;1.75;;;1.35;;
19167;SDS011;9716;53.114;18.040;2022-08-11T17:01:48;1.20;;;1.10;;
19167;SDS011;9716;53.114;18.040;2022-08-11T17:04:23;4.47;;;1.40;;
19167;SDS011;9716;53.114;18.040;2022-08-11T17:07:15;1.88;;;1.10;;